PWSweather.com
Personal Weather Stations
Station Observations
60DEGNUK
Firth, MossbankGB ZE2 9TF

FirthMossbankGB ZE2 9TF

Lat: 60.448922, Lon: -1.19346

Elevation: 60

Station Type: Watson

Latest ConditionsUpdated 10:30:00 PM GMT Monday, Oct 15, 2018
Currently Today's Max Today's Min Today's Average
Temperature 48.9°F9.4°C 56.1°F13.4°C 47.1°F8.4°C 50.5°F10.3°C
Dew Point 42.7°F5.9°C 45.7°F7.6°C 39.8°F4.3°C 42.7°F5.9°C
Winds 6.0 mph SW9.7 kmh SW 16.0 mph -25.7 kmh - - 7.9 mph 12.7 kmh
Wind Gusts 10.7 mph17.2 kmh 23.5 mph37.8 kmh - -
Humidity 79% 80% 64% 75%
Pressure 30.22 in1023.4 mb 30.23 in1023.7 mb 30.12 in1020.0 mb -
Precipitation - 0.01 in0.3 mm - -
Hour Temp Dew Point Humidity Winds Wind Gusts Pressure Precip Precip Rate Daily Precip Total
10:30 PM 48.9°F9.4°C 42.7°F5.9°C 79% 6.0 mph SW9.7 kmh SW 10.7 mph17.2 kmh 30.22 in1023.4 mb 0.00 in0.0 mm 0.00 in0.0 mm 0.01 in0.3 mm
10:25 PM 48.9°F9.4°C 42.4°F5.8°C 78% 5.5 mph WSW8.9 kmh WSW 9.8 mph15.8 kmh 30.22 in1023.4 mb 0.00 in0.0 mm 0.00 in0.0 mm 0.01 in0.3 mm
10:20 PM 48.9°F9.4°C 42.4°F5.8°C 78% 5.0 mph WSW8.0 kmh WSW 9.8 mph15.8 kmh 30.22 in1023.4 mb 0.00 in0.0 mm 0.00 in0.0 mm 0.01 in0.3 mm
10:15 PM 48.9°F9.4°C 42.4°F5.8°C 78% 5.4 mph WSW8.7 kmh WSW 11.4 mph18.3 kmh 30.22 in1023.4 mb 0.00 in0.0 mm 0.00 in0.0 mm 0.01 in0.3 mm
10:10 PM 49.1°F9.5°C 42.5°F5.8°C 78% 6.1 mph WSW9.8 kmh WSW 11.4 mph18.3 kmh 30.22 in1023.4 mb 0.00 in0.0 mm 0.00 in0.0 mm 0.01 in0.3 mm
10:05 PM 49.1°F9.5°C 42.5°F5.8°C 78% 6.0 mph WSW9.7 kmh WSW 11.4 mph18.3 kmh 30.22 in1023.4 mb 0.00 in0.0 mm 0.00 in0.0 mm 0.01 in0.3 mm
10:00 PM 48.9°F9.4°C 42.0°F5.6°C 77% 6.4 mph SW10.3 kmh SW 11.4 mph18.3 kmh 30.23 in1023.7 mb 0.00 in0.0 mm 0.00 in0.0 mm 0.01 in0.3 mm
09:55 PM 48.9°F9.4°C 42.0°F5.6°C 77% 6.2 mph SW10.0 kmh SW 9.8 mph15.8 kmh 30.23 in1023.7 mb 0.00 in0.0 mm 0.00 in0.0 mm 0.01 in0.3 mm
09:50 PM 48.7°F9.3°C 41.5°F5.3°C 76% 4.9 mph WSW7.9 kmh WSW 9.2 mph14.8 kmh 30.23 in1023.7 mb 0.00 in0.0 mm 0.00 in0.0 mm 0.01 in0.3 mm
09:45 PM 48.7°F9.3°C 41.2°F5.1°C 75% 4.4 mph WSW7.1 kmh WSW 8.3 mph13.4 kmh 30.23 in1023.7 mb 0.00 in0.0 mm 0.00 in0.0 mm 0.01 in0.3 mm
09:40 PM 49.1°F9.5°C 41.2°F5.1°C 74% 5.0 mph SW8.0 kmh SW 11.4 mph18.3 kmh 30.23 in1023.7 mb 0.00 in0.0 mm 0.00 in0.0 mm 0.01 in0.3 mm
09:35 PM 49.6°F9.8°C 41.3°F5.2°C 73% 7.2 mph SW11.6 kmh SW 13.0 mph20.9 kmh 30.23 in1023.7 mb 0.00 in0.0 mm 0.00 in0.0 mm 0.01 in0.3 mm
09:30 PM 49.8°F9.9°C 41.2°F5.1°C 72% 9.3 mph SW15.0 kmh SW 13.6 mph21.9 kmh 30.23 in1023.7 mb 0.00 in0.0 mm 0.00 in0.0 mm 0.01 in0.3 mm
09:25 PM 49.5°F9.7°C 41.5°F5.3°C 74% 9.5 mph WSW15.3 kmh WSW 13.6 mph21.9 kmh 30.23 in1023.7 mb 0.00 in0.0 mm 0.00 in0.0 mm 0.01 in0.3 mm
09:20 PM 49.1°F9.5°C 41.9°F5.5°C 76% 9.2 mph WSW14.8 kmh WSW 13.6 mph21.9 kmh 30.23 in1023.7 mb 0.00 in0.0 mm 0.00 in0.0 mm 0.01 in0.3 mm
09:15 PM 49.1°F9.5°C 42.2°F5.7°C 77% 7.4 mph WSW11.9 kmh WSW 13.6 mph21.9 kmh 30.23 in1023.7 mb 0.00 in0.0 mm 0.00 in0.0 mm 0.01 in0.3 mm
09:10 PM 48.7°F9.3°C 42.2°F5.7°C 78% 5.7 mph SW9.2 kmh SW 13.0 mph20.9 kmh 30.23 in1023.7 mb 0.00 in0.0 mm 0.00 in0.0 mm 0.01 in0.3 mm
09:05 PM 48.7°F9.3°C 42.2°F5.7°C 78% 5.6 mph SW9.0 kmh SW 9.2 mph14.8 kmh 30.23 in1023.7 mb 0.00 in0.0 mm 0.00 in0.0 mm 0.01 in0.3 mm
09:00 PM 48.7°F9.3°C 42.2°F5.7°C 78% 5.9 mph SW9.5 kmh SW 9.8 mph15.8 kmh 30.23 in1023.7 mb 0.00 in0.0 mm 0.00 in0.0 mm 0.01 in0.3 mm
08:55 PM 48.7°F9.3°C 42.2°F5.7°C 78% 6.1 mph SW9.8 kmh SW 9.8 mph15.8 kmh 30.23 in1023.7 mb 0.00 in0.0 mm 0.00 in0.0 mm 0.01 in0.3 mm
08:50 PM 49.1°F9.5°C 42.2°F5.7°C 77% 6.2 mph SW10.0 kmh SW 10.7 mph17.2 kmh 30.23 in1023.7 mb 0.00 in0.0 mm 0.00 in0.0 mm 0.01 in0.3 mm
08:45 PM 49.3°F9.6°C 42.4°F5.8°C 77% 5.8 mph SW9.3 kmh SW 10.7 mph17.2 kmh 30.23 in1023.7 mb 0.00 in0.0 mm 0.00 in0.0 mm 0.01 in0.3 mm
08:40 PM 49.5°F9.7°C 42.6°F5.9°C 77% 5.8 mph SW9.3 kmh SW 9.8 mph15.8 kmh 30.23 in1023.7 mb 0.00 in0.0 mm 0.00 in0.0 mm 0.01 in0.3 mm
08:35 PM 49.6°F9.8°C 42.7°F5.9°C 77% 6.4 mph SW10.3 kmh SW 9.8 mph15.8 kmh 30.23 in1023.7 mb 0.00 in0.0 mm 0.00 in0.0 mm 0.01 in0.3 mm
08:30 PM 49.8°F9.9°C 43.2°F6.2°C 78% 5.5 mph SW8.9 kmh SW 9.8 mph15.8 kmh 30.23 in1023.7 mb 0.00 in0.0 mm 0.00 in0.0 mm 0.01 in0.3 mm
08:25 PM 49.6°F9.8°C 43.4°F6.3°C 79% 4.6 mph SW7.4 kmh SW 7.6 mph12.2 kmh 30.23 in1023.7 mb 0.00 in0.0 mm 0.00 in0.0 mm 0.01 in0.3 mm
08:20 PM 49.6°F9.8°C 43.7°F6.5°C 80% 4.5 mph SW7.2 kmh SW 9.2 mph14.8 kmh 30.23 in1023.7 mb 0.00 in0.0 mm 0.00 in0.0 mm 0.01 in0.3 mm
08:15 PM 49.6°F9.8°C 43.1°F6.2°C 78% 4.4 mph SW7.1 kmh SW 9.2 mph14.8 kmh 30.23 in1023.7 mb 0.00 in0.0 mm 0.00 in0.0 mm 0.01 in0.3 mm
08:10 PM 49.6°F9.8°C 42.4°F5.8°C 76% 3.9 mph WSW6.3 kmh WSW 7.6 mph12.2 kmh 30.23 in1023.7 mb 0.00 in0.0 mm 0.00 in0.0 mm 0.01 in0.3 mm
08:05 PM 50.0°F10.0°C 42.4°F5.8°C 75% 4.4 mph WSW7.1 kmh WSW 7.6 mph12.2 kmh 30.23 in1023.7 mb 0.00 in0.0 mm 0.00 in0.0 mm 0.01 in0.3 mm
08:00 PM 50.2°F10.1°C 42.9°F6.1°C 76% 5.7 mph SW9.2 kmh SW 9.8 mph15.8 kmh 30.23 in1023.7 mb 0.00 in0.0 mm 0.00 in0.0 mm 0.01 in0.3 mm
07:55 PM 50.4°F10.2°C 43.4°F6.3°C 77% 6.9 mph WSW11.1 kmh WSW 10.7 mph17.2 kmh 30.23 in1023.7 mb 0.00 in0.0 mm 0.00 in0.0 mm 0.01 in0.3 mm
07:50 PM 50.2°F10.1°C 43.3°F6.3°C 77% 7.4 mph SW11.9 kmh SW 10.7 mph17.2 kmh 30.23 in1023.7 mb 0.00 in0.0 mm 0.00 in0.0 mm 0.01 in0.3 mm
07:45 PM 50.2°F10.1°C 43.3°F6.3°C 77% 6.8 mph SW10.9 kmh SW 9.8 mph15.8 kmh 30.23 in1023.7 mb 0.00 in0.0 mm 0.00 in0.0 mm 0.01 in0.3 mm
07:40 PM 50.0°F10.0°C 43.4°F6.3°C 78% 6.6 mph WSW10.6 kmh WSW 10.7 mph17.2 kmh 30.23 in1023.7 mb 0.00 in0.0 mm 0.00 in0.0 mm 0.01 in0.3 mm
07:35 PM 49.6°F9.8°C 43.4°F6.3°C 79% 6.4 mph WSW10.3 kmh WSW 10.7 mph17.2 kmh 30.22 in1023.4 mb 0.00 in0.0 mm 0.00 in0.0 mm 0.01 in0.3 mm
07:30 PM 49.1°F9.5°C 42.5°F5.8°C 78% 5.9 mph SW9.5 kmh SW 9.8 mph15.8 kmh 30.22 in1023.4 mb 0.00 in0.0 mm 0.00 in0.0 mm 0.01 in0.3 mm
07:25 PM 48.7°F9.3°C 41.9°F5.5°C 77% 5.3 mph WSW8.5 kmh WSW 9.8 mph15.8 kmh 30.23 in1023.7 mb 0.00 in0.0 mm 0.00 in0.0 mm 0.01 in0.3 mm
07:20 PM 48.4°F9.1°C 40.8°F4.9°C 75% 4.6 mph WSW7.4 kmh WSW 7.6 mph12.2 kmh 30.23 in1023.7 mb 0.00 in0.0 mm 0.00 in0.0 mm 0.01 in0.3 mm
07:15 PM 48.4°F9.1°C 40.8°F4.9°C 75% 4.2 mph WSW6.8 kmh WSW 7.6 mph12.2 kmh 30.23 in1023.7 mb 0.00 in0.0 mm 0.00 in0.0 mm 0.01 in0.3 mm
07:10 PM 48.4°F9.1°C 40.8°F4.9°C 75% 5.0 mph WSW8.0 kmh WSW 9.8 mph15.8 kmh 30.23 in1023.7 mb 0.00 in0.0 mm 0.00 in0.0 mm 0.01 in0.3 mm
07:05 PM 48.6°F9.2°C 41.3°F5.2°C 76% 5.8 mph WSW9.3 kmh WSW 9.8 mph15.8 kmh 30.22 in1023.4 mb 0.00 in0.0 mm 0.00 in0.0 mm 0.01 in0.3 mm
07:00 PM 48.6°F9.2°C 41.7°F5.4°C 77% 5.5 mph WSW8.9 kmh WSW 9.8 mph15.8 kmh 30.23 in1023.7 mb 0.00 in0.0 mm 0.00 in0.0 mm 0.01 in0.3 mm
06:55 PM 48.6°F9.2°C 42.0°F5.6°C 78% 4.9 mph WSW7.9 kmh WSW 9.2 mph14.8 kmh 30.22 in1023.4 mb 0.00 in0.0 mm 0.00 in0.0 mm 0.01 in0.3 mm
06:50 PM 48.7°F9.3°C 42.2°F5.7°C 78% 4.9 mph WSW7.9 kmh WSW 9.2 mph14.8 kmh 30.22 in1023.4 mb 0.00 in0.0 mm 0.00 in0.0 mm 0.01 in0.3 mm
06:45 PM 48.7°F9.3°C 42.2°F5.7°C 78% 5.7 mph WSW9.2 kmh WSW 9.8 mph15.8 kmh 30.22 in1023.4 mb 0.00 in0.0 mm 0.00 in0.0 mm 0.01 in0.3 mm
06:40 PM 48.7°F9.3°C 42.2°F5.7°C 78% 6.3 mph SW10.1 kmh SW 9.8 mph15.8 kmh 30.22 in1023.4 mb 0.00 in0.0 mm 0.00 in0.0 mm 0.01 in0.3 mm
06:35 PM 48.7°F9.3°C 42.2°F5.7°C 78% 5.2 mph SW8.4 kmh SW 9.8 mph15.8 kmh 30.22 in1023.4 mb 0.00 in0.0 mm 0.00 in0.0 mm 0.01 in0.3 mm
06:30 PM 48.6°F9.2°C 42.0°F5.6°C 78% 4.5 mph WSW7.2 kmh WSW 9.2 mph14.8 kmh 30.22 in1023.4 mb 0.00 in0.0 mm 0.00 in0.0 mm 0.01 in0.3 mm
06:25 PM 48.9°F9.4°C 42.0°F5.6°C 77% 5.3 mph WSW8.5 kmh WSW 10.7 mph17.2 kmh 30.22 in1023.4 mb 0.00 in0.0 mm 0.00 in0.0 mm 0.01 in0.3 mm
06:20 PM 49.1°F9.5°C 42.2°F5.7°C 77% 6.1 mph WSW9.8 kmh WSW 10.7 mph17.2 kmh 30.22 in1023.4 mb 0.00 in0.0 mm 0.00 in0.0 mm 0.01 in0.3 mm
06:15 PM 49.1°F9.5°C 42.5°F5.8°C 78% 5.6 mph WSW9.0 kmh WSW 9.8 mph15.8 kmh 30.22 in1023.4 mb 0.00 in0.0 mm 0.00 in0.0 mm 0.01 in0.3 mm
06:10 PM 49.3°F9.6°C 42.4°F5.8°C 77% 4.9 mph WSW7.9 kmh WSW 9.8 mph15.8 kmh 30.22 in1023.4 mb 0.00 in0.0 mm 0.00 in0.0 mm 0.01 in0.3 mm
06:05 PM 49.6°F9.8°C 42.7°F5.9°C 77% 6.0 mph WSW9.7 kmh WSW 10.7 mph17.2 kmh 30.22 in1023.4 mb 0.00 in0.0 mm 0.00 in0.0 mm 0.01 in0.3 mm
06:00 PM 50.0°F10.0°C 43.4°F6.3°C 78% 7.2 mph SW11.6 kmh SW 10.7 mph17.2 kmh 30.22 in1023.4 mb 0.00 in0.0 mm 0.00 in0.0 mm 0.01 in0.3 mm
05:55 PM 50.4°F10.2°C 44.1°F6.7°C 79% 7.5 mph SW12.1 kmh SW 10.7 mph17.2 kmh 30.22 in1023.4 mb 0.00 in0.0 mm 0.00 in0.0 mm 0.01 in0.3 mm
05:50 PM 50.5°F10.3°C 44.3°F6.8°C 79% 7.8 mph SW12.6 kmh SW 12.1 mph19.5 kmh 30.22 in1023.4 mb 0.00 in0.0 mm 0.00 in0.0 mm 0.01 in0.3 mm
05:45 PM 50.7°F10.4°C 44.5°F6.9°C 79% 8.1 mph SW13.0 kmh SW 12.1 mph19.5 kmh 30.22 in1023.4 mb 0.00 in0.0 mm 0.00 in0.0 mm 0.01 in0.3 mm
05:40 PM 50.7°F10.4°C 44.1°F6.7°C 78% 8.4 mph SW13.5 kmh SW 13.0 mph20.9 kmh 30.22 in1023.4 mb 0.00 in0.0 mm 0.00 in0.0 mm 0.01 in0.3 mm
05:35 PM 50.9°F10.5°C 44.3°F6.8°C 78% 8.7 mph SW14.0 kmh SW 13.0 mph20.9 kmh 30.21 in1023.0 mb 0.00 in0.0 mm 0.00 in0.0 mm 0.01 in0.3 mm
05:30 PM 51.1°F10.6°C 44.5°F6.9°C 78% 8.3 mph SW13.4 kmh SW 13.0 mph20.9 kmh 30.21 in1023.0 mb 0.00 in0.0 mm 0.00 in0.0 mm 0.01 in0.3 mm
05:25 PM 51.3°F10.7°C 44.6°F7.0°C 78% 7.7 mph SW12.4 kmh SW 11.4 mph18.3 kmh 30.21 in1023.0 mb 0.00 in0.0 mm 0.00 in0.0 mm 0.01 in0.3 mm
05:20 PM 51.3°F10.7°C 44.6°F7.0°C 78% 8.2 mph SW13.2 kmh SW 14.5 mph23.3 kmh 30.21 in1023.0 mb 0.00 in0.0 mm 0.00 in0.0 mm 0.01 in0.3 mm
05:15 PM 51.4°F10.8°C 44.8°F7.1°C 78% 8.7 mph SW14.0 kmh SW 14.5 mph23.3 kmh 30.21 in1023.0 mb 0.00 in0.0 mm 0.00 in0.0 mm 0.01 in0.3 mm
05:10 PM 51.3°F10.7°C 44.6°F7.0°C 78% 8.0 mph WSW12.9 kmh WSW 13.0 mph20.9 kmh 30.21 in1023.0 mb 0.00 in0.0 mm 0.00 in0.0 mm 0.01 in0.3 mm
05:05 PM 51.3°F10.7°C 44.6°F7.0°C 78% 7.7 mph SW12.4 kmh SW 13.0 mph20.9 kmh 30.21 in1023.0 mb 0.00 in0.0 mm 0.00 in0.0 mm 0.01 in0.3 mm
05:00 PM 51.1°F10.6°C 44.5°F6.9°C 78% 6.9 mph SW11.1 kmh SW 13.0 mph20.9 kmh 30.20 in1022.7 mb 0.00 in0.0 mm 0.00 in0.0 mm 0.01 in0.3 mm
04:55 PM 51.1°F10.6°C 44.1°F6.7°C 77% 6.1 mph SW9.8 kmh SW 9.8 mph15.8 kmh 30.20 in1022.7 mb 0.00 in0.0 mm 0.00 in0.0 mm 0.01 in0.3 mm
04:50 PM 51.1°F10.6°C 44.1°F6.7°C 77% 6.3 mph SW10.1 kmh SW 9.8 mph15.8 kmh 30.20 in1022.7 mb 0.00 in0.0 mm 0.00 in0.0 mm 0.01 in0.3 mm
04:45 PM 51.1°F10.6°C 44.1°F6.7°C 77% 6.6 mph WSW10.6 kmh WSW 10.7 mph17.2 kmh 30.20 in1022.7 mb 0.00 in0.0 mm 0.00 in0.0 mm 0.01 in0.3 mm
04:40 PM 51.1°F10.6°C 44.1°F6.7°C 77% 7.1 mph WSW11.4 kmh WSW 11.4 mph18.3 kmh 30.20 in1022.7 mb 0.00 in0.0 mm 0.00 in0.0 mm 0.01 in0.3 mm
04:35 PM 51.3°F10.7°C 44.6°F7.0°C 78% 6.8 mph WSW10.9 kmh WSW 11.4 mph18.3 kmh 30.20 in1022.7 mb 0.00 in0.0 mm 0.00 in0.0 mm 0.01 in0.3 mm
04:30 PM 51.1°F10.6°C 44.5°F6.9°C 78% 5.8 mph WSW9.3 kmh WSW 9.8 mph15.8 kmh 30.20 in1022.7 mb 0.00 in0.0 mm 0.00 in0.0 mm 0.01 in0.3 mm
04:25 PM 51.3°F10.7°C 44.6°F7.0°C 78% 5.4 mph SW8.7 kmh SW 7.6 mph12.2 kmh 30.20 in1022.7 mb 0.00 in0.0 mm 0.00 in0.0 mm 0.01 in0.3 mm
04:20 PM 51.4°F10.8°C 44.5°F6.9°C 77% 6.5 mph SW10.5 kmh SW 11.4 mph18.3 kmh 30.20 in1022.7 mb 0.00 in0.0 mm 0.00 in0.0 mm 0.01 in0.3 mm
04:15 PM 51.6°F10.9°C 44.3°F6.8°C 76% 7.7 mph WSW12.4 kmh WSW 11.4 mph18.3 kmh 30.20 in1022.7 mb 0.00 in0.0 mm 0.00 in0.0 mm 0.01 in0.3 mm
04:10 PM 51.6°F10.9°C 44.3°F6.8°C 76% 7.7 mph SW12.4 kmh SW 12.1 mph19.5 kmh 30.20 in1022.7 mb 0.00 in0.0 mm 0.00 in0.0 mm 0.01 in0.3 mm
04:05 PM 51.6°F10.9°C 44.3°F6.8°C 76% 7.3 mph SW11.7 kmh SW 12.1 mph19.5 kmh 30.20 in1022.7 mb 0.00 in0.0 mm 0.00 in0.0 mm 0.01 in0.3 mm
04:00 PM 51.6°F10.9°C 44.7°F7.1°C 77% 7.4 mph SW11.9 kmh SW 12.1 mph19.5 kmh 30.20 in1022.7 mb 0.00 in0.0 mm 0.00 in0.0 mm 0.01 in0.3 mm
03:55 PM 51.8°F11.0°C 44.8°F7.1°C 77% 7.4 mph WSW11.9 kmh WSW 11.4 mph18.3 kmh 30.20 in1022.7 mb 0.00 in0.0 mm 0.00 in0.0 mm 0.01 in0.3 mm
03:50 PM 51.8°F11.0°C 45.2°F7.3°C 78% 7.4 mph SW11.9 kmh SW 12.1 mph19.5 kmh 30.20 in1022.7 mb 0.00 in0.0 mm 0.00 in0.0 mm 0.01 in0.3 mm
03:45 PM 51.8°F11.0°C 44.8°F7.1°C 77% 7.9 mph SW12.7 kmh SW 13.0 mph20.9 kmh 30.20 in1022.7 mb 0.00 in0.0 mm 0.00 in0.0 mm 0.01 in0.3 mm
03:40 PM 51.8°F11.0°C 44.8°F7.1°C 77% 8.3 mph SW13.4 kmh SW 13.6 mph21.9 kmh 30.20 in1022.7 mb 0.00 in0.0 mm 0.00 in0.0 mm 0.01 in0.3 mm
03:35 PM 52.0°F11.1°C 44.7°F7.1°C 76% 7.9 mph SW12.7 kmh SW 13.6 mph21.9 kmh 30.20 in1022.7 mb 0.00 in0.0 mm 0.00 in0.0 mm 0.01 in0.3 mm
03:30 PM 52.0°F11.1°C 44.7°F7.1°C 76% 7.2 mph SW11.6 kmh SW 10.7 mph17.2 kmh 30.20 in1022.7 mb 0.00 in0.0 mm 0.00 in0.0 mm 0.01 in0.3 mm
03:25 PM 52.0°F11.1°C 44.7°F7.1°C 76% 7.4 mph SW11.9 kmh SW 10.7 mph17.2 kmh 30.20 in1022.7 mb 0.00 in0.0 mm 0.00 in0.0 mm 0.01 in0.3 mm
03:20 PM 52.2°F11.2°C 44.8°F7.1°C 76% 7.2 mph WSW11.6 kmh WSW 10.7 mph17.2 kmh 30.20 in1022.7 mb 0.00 in0.0 mm 0.00 in0.0 mm 0.01 in0.3 mm
03:15 PM 52.2°F11.2°C 44.8°F7.1°C 76% 6.8 mph SW10.9 kmh SW 10.7 mph17.2 kmh 30.20 in1022.7 mb 0.00 in0.0 mm 0.00 in0.0 mm 0.01 in0.3 mm
03:10 PM 52.0°F11.1°C 44.7°F7.1°C 76% 7.4 mph SW11.9 kmh SW 10.7 mph17.2 kmh 30.20 in1022.7 mb 0.00 in0.0 mm 0.00 in0.0 mm 0.01 in0.3 mm
03:05 PM 52.0°F11.1°C 44.3°F6.8°C 75% 7.5 mph SW12.1 kmh SW 10.7 mph17.2 kmh 30.20 in1022.7 mb 0.00 in0.0 mm 0.00 in0.0 mm 0.01 in0.3 mm
03:00 PM 51.8°F11.0°C 44.1°F6.7°C 75% 7.3 mph SW11.7 kmh SW 10.7 mph17.2 kmh 30.20 in1022.7 mb 0.00 in0.0 mm 0.00 in0.0 mm 0.01 in0.3 mm
02:55 PM 51.8°F11.0°C 44.1°F6.7°C 75% 7.4 mph SW11.9 kmh SW 10.7 mph17.2 kmh 30.19 in1022.4 mb 0.00 in0.0 mm 0.00 in0.0 mm 0.01 in0.3 mm
02:50 PM 51.8°F11.0°C 44.1°F6.7°C 75% 8.1 mph WSW13.0 kmh WSW 13.0 mph20.9 kmh 30.19 in1022.4 mb 0.00 in0.0 mm 0.00 in0.0 mm 0.01 in0.3 mm
02:45 PM 52.0°F11.1°C 44.0°F6.7°C 74% 9.3 mph WSW15.0 kmh WSW 15.2 mph24.5 kmh 30.19 in1022.4 mb 0.00 in0.0 mm 0.00 in0.0 mm 0.01 in0.3 mm
02:40 PM 52.5°F11.4°C 44.1°F6.7°C 73% 9.1 mph WSW14.6 kmh WSW 15.2 mph24.5 kmh 30.19 in1022.4 mb 0.00 in0.0 mm 0.00 in0.0 mm 0.01 in0.3 mm
02:35 PM 52.9°F11.6°C 45.2°F7.3°C 75% 8.7 mph WSW14.0 kmh WSW 14.5 mph23.3 kmh 30.19 in1022.4 mb 0.00 in0.0 mm 0.00 in0.0 mm 0.01 in0.3 mm
02:30 PM 51.8°F11.0°C 44.1°F6.7°C 75% 8.4 mph SW13.5 kmh SW 14.5 mph23.3 kmh 30.18 in1022.0 mb 0.00 in0.0 mm 0.00 in0.0 mm 0.01 in0.3 mm
02:25 PM 51.4°F10.8°C 43.8°F6.6°C 75% 8.3 mph SW13.4 kmh SW 14.5 mph23.3 kmh 30.18 in1022.0 mb 0.00 in0.0 mm 0.00 in0.0 mm 0.01 in0.3 mm
02:20 PM 51.4°F10.8°C 43.4°F6.3°C 74% 8.4 mph WSW13.5 kmh WSW 13.6 mph21.9 kmh 30.18 in1022.0 mb 0.00 in0.0 mm 0.00 in0.0 mm 0.01 in0.3 mm
02:15 PM 51.3°F10.7°C 42.9°F6.1°C 73% 7.5 mph W12.1 kmh W 13.6 mph21.9 kmh 30.18 in1022.0 mb 0.00 in0.0 mm 0.00 in0.0 mm 0.01 in0.3 mm
02:10 PM 51.1°F10.6°C 42.7°F5.9°C 73% 7.5 mph WSW12.1 kmh WSW 13.6 mph21.9 kmh 30.18 in1022.0 mb 0.00 in0.0 mm 0.00 in0.0 mm 0.01 in0.3 mm
02:05 PM 51.1°F10.6°C 43.1°F6.2°C 74% 8.8 mph WSW14.2 kmh WSW 14.5 mph23.3 kmh 30.18 in1022.0 mb 0.00 in0.0 mm 0.00 in0.0 mm 0.01 in0.3 mm
02:00 PM 51.3°F10.7°C 43.6°F6.4°C 75% 9.3 mph SW15.0 kmh SW 14.5 mph23.3 kmh 30.18 in1022.0 mb 0.00 in0.0 mm 0.00 in0.0 mm 0.01 in0.3 mm
01:55 PM 51.4°F10.8°C 43.8°F6.6°C 75% 9.3 mph WSW15.0 kmh WSW 17.4 mph28.0 kmh 30.19 in1022.4 mb 0.00 in0.0 mm 0.00 in0.0 mm 0.01 in0.3 mm
01:50 PM 51.8°F11.0°C 44.5°F6.9°C 76% 11.3 mph SW18.2 kmh SW 22.1 mph35.6 kmh 30.18 in1022.0 mb 0.00 in0.0 mm 0.00 in0.0 mm 0.01 in0.3 mm
01:45 PM 52.2°F11.2°C 44.5°F6.9°C 75% 13.5 mph SW21.7 kmh SW 22.1 mph35.6 kmh 30.18 in1022.0 mb 0.00 in0.0 mm 0.00 in0.0 mm 0.01 in0.3 mm
01:40 PM 53.1°F11.7°C 45.0°F7.2°C 74% 14.8 mph WSW23.8 kmh WSW 22.8 mph36.7 kmh 30.18 in1022.0 mb 0.00 in0.0 mm 0.00 in0.0 mm 0.01 in0.3 mm
01:35 PM 53.4°F11.9°C 45.0°F7.2°C 73% 16.0 mph WSW25.7 kmh WSW 22.8 mph36.7 kmh 30.18 in1022.0 mb 0.00 in0.0 mm 0.00 in0.0 mm 0.01 in0.3 mm
01:30 PM 53.6°F12.0°C 45.2°F7.3°C 73% 14.8 mph WSW23.8 kmh WSW 22.8 mph36.7 kmh 30.18 in1022.0 mb 0.00 in0.0 mm 0.00 in0.0 mm 0.01 in0.3 mm
01:25 PM 53.4°F11.9°C 45.7°F7.6°C 75% 12.8 mph WSW20.6 kmh WSW 21.3 mph34.3 kmh 30.18 in1022.0 mb 0.00 in0.0 mm 0.00 in0.0 mm 0.01 in0.3 mm
01:20 PM 53.2°F11.8°C 45.2°F7.3°C 74% 12.6 mph SW20.3 kmh SW 19.7 mph31.7 kmh 30.17 in1021.7 mb 0.00 in0.0 mm 0.00 in0.0 mm 0.01 in0.3 mm
01:15 PM 53.2°F11.8°C 44.8°F7.1°C 73% 12.0 mph WSW19.3 kmh WSW 17.4 mph28.0 kmh 30.17 in1021.7 mb 0.00 in0.0 mm 0.00 in0.0 mm 0.01 in0.3 mm
01:10 PM 53.4°F11.9°C 45.0°F7.2°C 73% 11.7 mph WSW18.8 kmh WSW 19.0 mph30.6 kmh 30.18 in1022.0 mb 0.00 in0.0 mm 0.00 in0.0 mm 0.01 in0.3 mm
01:05 PM 53.6°F12.0°C 45.2°F7.3°C 73% 12.8 mph WSW20.6 kmh WSW 20.6 mph33.2 kmh 30.18 in1022.0 mb 0.00 in0.0 mm 0.00 in0.0 mm 0.01 in0.3 mm
01:00 PM 53.8°F12.1°C 45.0°F7.2°C 72% 13.6 mph WSW21.9 kmh WSW 20.6 mph33.2 kmh 30.17 in1021.7 mb 0.00 in0.0 mm 0.00 in0.0 mm 0.01 in0.3 mm
12:55 PM 53.8°F12.1°C 45.0°F7.2°C 72% 13.3 mph SW21.4 kmh SW 20.6 mph33.2 kmh 30.18 in1022.0 mb 0.00 in0.0 mm 0.00 in0.0 mm 0.01 in0.3 mm
12:50 PM 54.1°F12.3°C 45.3°F7.4°C 72% 13.8 mph SW22.2 kmh SW 23.5 mph37.8 kmh 30.17 in1021.7 mb 0.00 in0.0 mm 0.00 in0.0 mm 0.01 in0.3 mm
12:45 PM 54.3°F12.4°C 45.1°F7.3°C 71% 14.1 mph SW22.7 kmh SW 23.5 mph37.8 kmh 30.17 in1021.7 mb 0.00 in0.0 mm 0.00 in0.0 mm 0.01 in0.3 mm
12:40 PM 54.7°F12.6°C 44.3°F6.8°C 68% 12.8 mph WSW20.6 kmh WSW 19.0 mph30.6 kmh 30.18 in1022.0 mb 0.00 in0.0 mm 0.00 in0.0 mm 0.01 in0.3 mm
12:35 PM 55.8°F13.2°C 44.6°F7.0°C 66% 11.5 mph WSW18.5 kmh WSW 19.0 mph30.6 kmh 30.17 in1021.7 mb 0.00 in0.0 mm 0.00 in0.0 mm 0.01 in0.3 mm
12:30 PM 55.0°F12.8°C 45.4°F7.4°C 70% 10.7 mph WSW17.2 kmh WSW 17.4 mph28.0 kmh 30.17 in1021.7 mb 0.00 in0.0 mm 0.00 in0.0 mm 0.01 in0.3 mm
12:25 PM 54.9°F12.7°C 44.1°F6.7°C 67% 10.0 mph WSW16.1 kmh WSW 17.4 mph28.0 kmh 30.17 in1021.7 mb 0.00 in0.0 mm 0.00 in0.0 mm 0.01 in0.3 mm
12:20 PM 55.6°F13.1°C 45.2°F7.3°C 68% 9.5 mph WSW15.3 kmh WSW 14.5 mph23.3 kmh 30.17 in1021.7 mb 0.00 in0.0 mm 0.00 in0.0 mm 0.01 in0.3 mm
12:15 PM 54.9°F12.7°C 45.3°F7.4°C 70% 10.6 mph WSW17.1 kmh WSW 18.3 mph29.5 kmh 30.18 in1022.0 mb 0.00 in0.0 mm 0.00 in0.0 mm 0.01 in0.3 mm
12:10 PM 54.0°F12.2°C 45.1°F7.3°C 72% 11.2 mph WSW18.0 kmh WSW 18.3 mph29.5 kmh 30.17 in1021.7 mb 0.00 in0.0 mm 0.00 in0.0 mm 0.01 in0.3 mm
12:05 PM 54.1°F12.3°C 45.3°F7.4°C 72% 11.0 mph WSW17.7 kmh WSW 16.8 mph27.0 kmh 30.17 in1021.7 mb 0.00 in0.0 mm 0.00 in0.0 mm 0.01 in0.3 mm
12:00 PM 54.3°F12.4°C 45.1°F7.3°C 71% 11.8 mph WSW19.0 kmh WSW 16.8 mph27.0 kmh 30.18 in1022.0 mb 0.00 in0.0 mm 0.00 in0.0 mm 0.01 in0.3 mm
11:55 AM 54.3°F12.4°C 45.1°F7.3°C 71% 11.7 mph WSW18.8 kmh WSW 19.0 mph30.6 kmh 30.18 in1022.0 mb 0.00 in0.0 mm 0.00 in0.0 mm 0.01 in0.3 mm
11:50 AM 54.5°F12.5°C 44.2°F6.8°C 68% 11.6 mph WSW18.7 kmh WSW 19.7 mph31.7 kmh 30.17 in1021.7 mb 0.00 in0.0 mm 0.00 in0.0 mm 0.01 in0.3 mm
11:45 AM 54.9°F12.7°C 44.1°F6.7°C 67% 12.6 mph SW20.3 kmh SW 19.7 mph31.7 kmh 30.17 in1021.7 mb 0.00 in0.0 mm 0.00 in0.0 mm 0.01 in0.3 mm
11:40 AM 55.4°F13.0°C 44.2°F6.8°C 66% 13.2 mph SW21.2 kmh SW 19.7 mph31.7 kmh 30.17 in1021.7 mb 0.00 in0.0 mm 0.00 in0.0 mm 0.01 in0.3 mm
11:30 AM 54.5°F12.5°C 43.8°F6.6°C 67% 11.9 mph SW19.2 kmh SW 15.9 mph25.6 kmh 30.17 in1021.7 mb 0.00 in0.0 mm 0.00 in0.0 mm 0.01 in0.3 mm
11:25 AM 55.2°F12.9°C 43.7°F6.5°C 65% 12.3 mph SW19.8 kmh SW 19.0 mph30.6 kmh 30.17 in1021.7 mb 0.00 in0.0 mm 0.00 in0.0 mm 0.01 in0.3 mm
11:20 AM 56.1°F13.4°C 44.5°F6.9°C 65% 12.6 mph SW20.3 kmh SW 20.6 mph33.2 kmh 30.17 in1021.7 mb 0.00 in0.0 mm 0.00 in0.0 mm 0.01 in0.3 mm
11:15 AM 55.9°F13.3°C 43.9°F6.6°C 64% 13.4 mph WSW21.6 kmh WSW 20.6 mph33.2 kmh 30.17 in1021.7 mb 0.00 in0.0 mm 0.00 in0.0 mm 0.01 in0.3 mm
11:10 AM 56.1°F13.4°C 44.5°F6.9°C 65% 13.3 mph WSW21.4 kmh WSW 19.7 mph31.7 kmh 30.17 in1021.7 mb 0.00 in0.0 mm 0.00 in0.0 mm 0.01 in0.3 mm
11:05 AM 55.9°F13.3°C 44.4°F6.9°C 65% 13.2 mph WSW21.2 kmh WSW 20.6 mph33.2 kmh 30.17 in1021.7 mb 0.00 in0.0 mm 0.00 in0.0 mm 0.01 in0.3 mm
11:00 AM 55.6°F13.1°C 44.4°F6.9°C 66% 12.2 mph WSW19.6 kmh WSW 20.6 mph33.2 kmh 30.17 in1021.7 mb 0.00 in0.0 mm 0.00 in0.0 mm 0.01 in0.3 mm
10:55 AM 54.9°F12.7°C 44.5°F6.9°C 68% 12.5 mph WSW20.1 kmh WSW 19.0 mph30.6 kmh 30.17 in1021.7 mb 0.00 in0.0 mm 0.00 in0.0 mm 0.01 in0.3 mm
10:50 AM 54.1°F12.3°C 44.6°F7.0°C 70% 13.5 mph SW21.7 kmh SW 19.0 mph30.6 kmh 30.17 in1021.7 mb 0.00 in0.0 mm 0.00 in0.0 mm 0.01 in0.3 mm
10:45 AM 55.2°F12.9°C 43.3°F6.3°C 64% 12.7 mph WSW20.4 kmh WSW 19.0 mph30.6 kmh 30.16 in1021.3 mb 0.00 in0.0 mm 0.00 in0.0 mm 0.01 in0.3 mm
10:40 AM 55.8°F13.2°C 43.8°F6.6°C 64% 11.8 mph WSW19.0 kmh WSW 19.0 mph30.6 kmh 30.16 in1021.3 mb 0.00 in0.0 mm 0.00 in0.0 mm 0.01 in0.3 mm
10:35 AM 55.6°F13.1°C 44.8°F7.1°C 67% 11.0 mph WSW17.7 kmh WSW 15.9 mph25.6 kmh 30.16 in1021.3 mb 0.00 in0.0 mm 0.00 in0.0 mm 0.01 in0.3 mm
10:30 AM 54.7°F12.6°C 44.3°F6.8°C 68% 10.7 mph WSW17.2 kmh WSW 15.9 mph25.6 kmh 30.16 in1021.3 mb 0.00 in0.0 mm 0.00 in0.0 mm 0.01 in0.3 mm
10:25 AM 54.3°F12.4°C 45.1°F7.3°C 71% 11.0 mph SW17.7 kmh SW 16.8 mph27.0 kmh 30.16 in1021.3 mb 0.00 in0.0 mm 0.00 in0.0 mm 0.01 in0.3 mm
10:20 AM 53.6°F12.0°C 44.8°F7.1°C 72% 10.9 mph WSW17.5 kmh WSW 16.8 mph27.0 kmh 30.16 in1021.3 mb 0.00 in0.0 mm 0.00 in0.0 mm 0.01 in0.3 mm
10:15 AM 52.9°F11.6°C 44.1°F6.7°C 72% 10.1 mph WSW16.3 kmh WSW 16.8 mph27.0 kmh 30.16 in1021.3 mb 0.00 in0.0 mm 0.00 in0.0 mm 0.01 in0.3 mm
10:10 AM 52.7°F11.5°C 43.9°F6.6°C 72% 9.7 mph SW15.6 kmh SW 16.8 mph27.0 kmh 30.16 in1021.3 mb 0.00 in0.0 mm 0.00 in0.0 mm 0.01 in0.3 mm
10:05 AM 52.5°F11.4°C 43.8°F6.6°C 72% 10.4 mph SW16.7 kmh SW 15.9 mph25.6 kmh 30.16 in1021.3 mb 0.00 in0.0 mm 0.00 in0.0 mm 0.01 in0.3 mm
10:00 AM 52.3°F11.3°C 43.6°F6.4°C 72% 10.1 mph WSW16.3 kmh WSW 15.9 mph25.6 kmh 30.16 in1021.3 mb 0.00 in0.0 mm 0.00 in0.0 mm 0.01 in0.3 mm
09:55 AM 52.3°F11.3°C 43.6°F6.4°C 72% 10.2 mph WSW16.4 kmh WSW 16.8 mph27.0 kmh 30.16 in1021.3 mb 0.00 in0.0 mm 0.00 in0.0 mm 0.01 in0.3 mm
09:50 AM 52.2°F11.2°C 43.4°F6.3°C 72% 11.1 mph WSW17.9 kmh WSW 18.3 mph29.5 kmh 30.16 in1021.3 mb 0.00 in0.0 mm 0.00 in0.0 mm 0.01 in0.3 mm
09:45 AM 52.2°F11.2°C 43.4°F6.3°C 72% 11.0 mph WSW17.7 kmh WSW 18.3 mph29.5 kmh 30.16 in1021.3 mb 0.00 in0.0 mm 0.00 in0.0 mm 0.01 in0.3 mm
09:40 AM 52.0°F11.1°C 43.2°F6.2°C 72% 10.9 mph WSW17.5 kmh WSW 14.5 mph23.3 kmh 30.16 in1021.3 mb 0.00 in0.0 mm 0.00 in0.0 mm 0.01 in0.3 mm
09:35 AM 52.0°F11.1°C 43.2°F6.2°C 72% 10.6 mph WSW17.1 kmh WSW 14.5 mph23.3 kmh 30.16 in1021.3 mb 0.00 in0.0 mm 0.00 in0.0 mm 0.01 in0.3 mm
09:30 AM 51.8°F11.0°C 43.1°F6.2°C 72% 10.9 mph WSW17.5 kmh WSW 16.8 mph27.0 kmh 30.16 in1021.3 mb 0.00 in0.0 mm 0.00 in0.0 mm 0.01 in0.3 mm
09:25 AM 51.8°F11.0°C 43.1°F6.2°C 72% 10.5 mph SW16.9 kmh SW 16.8 mph27.0 kmh 30.16 in1021.3 mb 0.00 in0.0 mm 0.00 in0.0 mm 0.01 in0.3 mm
09:20 AM 51.8°F11.0°C 43.1°F6.2°C 72% 10.6 mph SW17.1 kmh SW 15.2 mph24.5 kmh 30.16 in1021.3 mb 0.00 in0.0 mm 0.00 in0.0 mm 0.01 in0.3 mm
09:15 AM 51.6°F10.9°C 43.3°F6.3°C 73% 11.7 mph SW18.8 kmh SW 15.9 mph25.6 kmh 30.16 in1021.3 mb 0.00 in0.0 mm 0.00 in0.0 mm 0.01 in0.3 mm
09:10 AM 51.4°F10.8°C 42.7°F5.9°C 72% 11.4 mph SW18.3 kmh SW 15.9 mph25.6 kmh 30.16 in1021.3 mb 0.00 in0.0 mm 0.00 in0.0 mm 0.01 in0.3 mm
09:05 AM 51.3°F10.7°C 42.9°F6.1°C 73% 10.8 mph SW17.4 kmh SW 15.9 mph25.6 kmh 30.16 in1021.3 mb 0.00 in0.0 mm 0.00 in0.0 mm 0.01 in0.3 mm
09:00 AM 51.3°F10.7°C 42.9°F6.1°C 73% 11.0 mph WSW17.7 kmh WSW 17.4 mph28.0 kmh 30.16 in1021.3 mb 0.00 in0.0 mm 0.00 in0.0 mm 0.01 in0.3 mm
08:55 AM 51.3°F10.7°C 42.6°F5.9°C 72% 12.2 mph WSW19.6 kmh WSW 19.7 mph31.7 kmh 30.16 in1021.3 mb 0.00 in0.0 mm 0.00 in0.0 mm 0.01 in0.3 mm
08:50 AM 51.4°F10.8°C 42.7°F5.9°C 72% 12.7 mph SW20.4 kmh SW 19.7 mph31.7 kmh 30.16 in1021.3 mb 0.00 in0.0 mm 0.00 in0.0 mm 0.01 in0.3 mm
08:45 AM 51.4°F10.8°C 42.7°F5.9°C 72% 12.2 mph WSW19.6 kmh WSW 18.3 mph29.5 kmh 30.16 in1021.3 mb 0.00 in0.0 mm 0.00 in0.0 mm 0.01 in0.3 mm
08:40 AM 51.4°F10.8°C 42.7°F5.9°C 72% 11.9 mph WSW19.2 kmh WSW 18.3 mph29.5 kmh 30.15 in1021.0 mb 0.00 in0.0 mm 0.00 in0.0 mm 0.01 in0.3 mm
08:35 AM 51.4°F10.8°C 42.7°F5.9°C 72% 11.9 mph SW19.2 kmh SW 16.8 mph27.0 kmh 30.15 in1021.0 mb 0.00 in0.0 mm 0.00 in0.0 mm 0.01 in0.3 mm
08:30 AM 51.3°F10.7°C 42.6°F5.9°C 72% 11.5 mph WSW18.5 kmh WSW 16.8 mph27.0 kmh 30.15 in1021.0 mb 0.00 in0.0 mm 0.00 in0.0 mm 0.01 in0.3 mm
08:25 AM 51.3°F10.7°C 42.6°F5.9°C 72% 10.7 mph WSW17.2 kmh WSW 14.5 mph23.3 kmh 30.15 in1021.0 mb 0.00 in0.0 mm 0.00 in0.0 mm 0.01 in0.3 mm
08:20 AM 51.3°F10.7°C 42.6°F5.9°C 72% 10.7 mph WSW17.2 kmh WSW 15.2 mph24.5 kmh 30.15 in1021.0 mb 0.00 in0.0 mm 0.00 in0.0 mm 0.01 in0.3 mm
08:15 AM 51.3°F10.7°C 42.6°F5.9°C 72% 9.9 mph WSW15.9 kmh WSW 15.2 mph24.5 kmh 30.15 in1021.0 mb 0.00 in0.0 mm 0.00 in0.0 mm 0.01 in0.3 mm
08:10 AM 51.1°F10.6°C 42.4°F5.8°C 72% 9.3 mph SW15.0 kmh SW 15.9 mph25.6 kmh 30.15 in1021.0 mb 0.00 in0.0 mm 0.00 in0.0 mm 0.01 in0.3 mm
08:05 AM 51.1°F10.6°C 42.4°F5.8°C 72% 8.9 mph SW14.3 kmh SW 15.9 mph25.6 kmh 30.15 in1021.0 mb 0.00 in0.0 mm 0.00 in0.0 mm 0.01 in0.3 mm
08:00 AM 51.1°F10.6°C 42.4°F5.8°C 72% 8.8 mph SW14.2 kmh SW 15.9 mph25.6 kmh 30.15 in1021.0 mb 0.00 in0.0 mm 0.00 in0.0 mm 0.01 in0.3 mm
07:55 AM 51.1°F10.6°C 42.4°F5.8°C 72% 8.5 mph SW13.7 kmh SW 15.9 mph25.6 kmh 30.15 in1021.0 mb 0.00 in0.0 mm 0.00 in0.0 mm 0.01 in0.3 mm
07:50 AM 50.9°F10.5°C 42.2°F5.7°C 72% 8.5 mph SW13.7 kmh SW 14.5 mph23.3 kmh 30.15 in1021.0 mb 0.00 in0.0 mm 0.00 in0.0 mm 0.01 in0.3 mm
07:45 AM 50.9°F10.5°C 42.2°F5.7°C 72% 9.4 mph SW15.1 kmh SW 14.5 mph23.3 kmh 30.15 in1021.0 mb 0.00 in0.0 mm 0.00 in0.0 mm 0.01 in0.3 mm
07:40 AM 50.7°F10.4°C 42.0°F5.6°C 72% 9.2 mph SW14.8 kmh SW 14.5 mph23.3 kmh 30.15 in1021.0 mb 0.00 in0.0 mm 0.00 in0.0 mm 0.01 in0.3 mm
07:35 AM 50.4°F10.2°C 41.7°F5.4°C 72% 9.0 mph SW14.5 kmh SW 14.5 mph23.3 kmh 30.15 in1021.0 mb 0.00 in0.0 mm 0.00 in0.0 mm 0.01 in0.3 mm
07:30 AM 50.2°F10.1°C 41.5°F5.3°C 72% 8.6 mph SW13.8 kmh SW 13.0 mph20.9 kmh 30.15 in1021.0 mb 0.00 in0.0 mm 0.00 in0.0 mm 0.01 in0.3 mm
07:25 AM 50.2°F10.1°C 41.5°F5.3°C 72% 8.3 mph SW13.4 kmh SW 13.6 mph21.9 kmh 30.15 in1021.0 mb 0.00 in0.0 mm 0.00 in0.0 mm 0.01 in0.3 mm
07:20 AM 50.0°F10.0°C 41.7°F5.4°C 73% 7.9 mph WSW12.7 kmh WSW 13.6 mph21.9 kmh 30.14 in1020.7 mb 0.00 in0.0 mm 0.00 in0.0 mm 0.01 in0.3 mm
07:15 AM 49.8°F9.9°C 41.9°F5.5°C 74% 7.3 mph SW11.7 kmh SW 12.1 mph19.5 kmh 30.15 in1021.0 mb 0.00 in0.0 mm 0.00 in0.0 mm 0.01 in0.3 mm
07:10 AM 49.6°F9.8°C 42.0°F5.6°C 75% 6.9 mph SW11.1 kmh SW 12.1 mph19.5 kmh 30.14 in1020.7 mb 0.00 in0.0 mm 0.00 in0.0 mm 0.01 in0.3 mm
07:05 AM 49.5°F9.7°C 42.2°F5.7°C 76% 6.8 mph SW10.9 kmh SW 12.1 mph19.5 kmh 30.14 in1020.7 mb 0.00 in0.0 mm 0.00 in0.0 mm 0.01 in0.3 mm
07:00 AM 49.5°F9.7°C 42.2°F5.7°C 76% 7.1 mph SW11.4 kmh SW 10.7 mph17.2 kmh 30.14 in1020.7 mb 0.00 in0.0 mm 0.00 in0.0 mm 0.01 in0.3 mm
06:55 AM 49.3°F9.6°C 42.0°F5.6°C 76% 7.1 mph SW11.4 kmh SW 11.4 mph18.3 kmh 30.14 in1020.7 mb 0.00 in0.0 mm 0.00 in0.0 mm 0.01 in0.3 mm
06:50 AM 49.3°F9.6°C 42.0°F5.6°C 76% 6.9 mph SW11.1 kmh SW 11.4 mph18.3 kmh 30.14 in1020.7 mb 0.00 in0.0 mm 0.00 in0.0 mm 0.01 in0.3 mm
06:45 AM 49.3°F9.6°C 42.0°F5.6°C 76% 6.9 mph SW11.1 kmh SW 10.7 mph17.2 kmh 30.14 in1020.7 mb 0.00 in0.0 mm 0.00 in0.0 mm 0.01 in0.3 mm
06:40 AM 49.1°F9.5°C 41.9°F5.5°C 76% 6.9 mph SW11.1 kmh SW 10.7 mph17.2 kmh 30.14 in1020.7 mb 0.00 in0.0 mm 0.00 in0.0 mm 0.01 in0.3 mm
06:35 AM 48.9°F9.4°C 41.7°F5.4°C 76% 6.5 mph SW10.5 kmh SW 9.8 mph15.8 kmh 30.13 in1020.3 mb 0.00 in0.0 mm 0.00 in0.0 mm 0.01 in0.3 mm
06:30 AM 48.9°F9.4°C 41.7°F5.4°C 76% 6.3 mph SW10.1 kmh SW 9.2 mph14.8 kmh 30.13 in1020.3 mb 0.00 in0.0 mm 0.00 in0.0 mm 0.01 in0.3 mm
06:25 AM 48.9°F9.4°C 41.7°F5.4°C 76% 6.3 mph SW10.1 kmh SW 9.8 mph15.8 kmh 30.13 in1020.3 mb 0.00 in0.0 mm 0.00 in0.0 mm 0.01 in0.3 mm
06:20 AM 48.7°F9.3°C 41.5°F5.3°C 76% 6.4 mph SW10.3 kmh SW 9.8 mph15.8 kmh 30.13 in1020.3 mb 0.00 in0.0 mm 0.00 in0.0 mm 0.01 in0.3 mm
06:15 AM 48.7°F9.3°C 41.5°F5.3°C 76% 6.5 mph SW10.5 kmh SW 9.8 mph15.8 kmh 30.13 in1020.3 mb 0.00 in0.0 mm 0.00 in0.0 mm 0.01 in0.3 mm
06:10 AM 48.7°F9.3°C 41.5°F5.3°C 76% 6.1 mph SSW9.8 kmh SSW 10.7 mph17.2 kmh 30.13 in1020.3 mb 0.00 in0.0 mm 0.00 in0.0 mm 0.01 in0.3 mm
06:05 AM 48.7°F9.3°C 41.5°F5.3°C 76% 5.8 mph SSW9.3 kmh SSW 10.7 mph17.2 kmh 30.13 in1020.3 mb 0.00 in0.0 mm 0.00 in0.0 mm 0.01 in0.3 mm
06:00 AM 48.6°F9.2°C 41.3°F5.2°C 76% 5.5 mph SSW8.9 kmh SSW 10.7 mph17.2 kmh 30.13 in1020.3 mb 0.00 in0.0 mm 0.00 in0.0 mm 0.01 in0.3 mm
05:55 AM 48.6°F9.2°C 41.3°F5.2°C 76% 5.7 mph SSW9.2 kmh SSW 10.7 mph17.2 kmh 30.13 in1020.3 mb 0.00 in0.0 mm 0.00 in0.0 mm 0.01 in0.3 mm
05:50 AM 48.7°F9.3°C 41.2°F5.1°C 75% 5.8 mph SSW9.3 kmh SSW 8.3 mph13.4 kmh 30.13 in1020.3 mb 0.00 in0.0 mm 0.00 in0.0 mm 0.01 in0.3 mm
05:45 AM 48.9°F9.4°C 41.0°F5.0°C 74% 5.6 mph SSW9.0 kmh SSW 9.8 mph15.8 kmh 30.13 in1020.3 mb 0.00 in0.0 mm 0.00 in0.0 mm 0.01 in0.3 mm
05:40 AM 48.9°F9.4°C 41.0°F5.0°C 74% 6.0 mph SW9.7 kmh SW 10.7 mph17.2 kmh 30.13 in1020.3 mb 0.00 in0.0 mm 0.00 in0.0 mm 0.01 in0.3 mm
05:35 AM 49.1°F9.5°C 40.8°F4.9°C 73% 7.1 mph WSW11.4 kmh WSW 12.1 mph19.5 kmh 30.12 in1020.0 mb 0.00 in0.0 mm 0.00 in0.0 mm 0.01 in0.3 mm
05:30 AM 49.1°F9.5°C 40.8°F4.9°C 73% 6.9 mph WSW11.1 kmh WSW 13.6 mph21.9 kmh 30.13 in1020.3 mb 0.00 in0.0 mm 0.00 in0.0 mm 0.01 in0.3 mm
05:25 AM 48.9°F9.4°C 40.7°F4.8°C 73% 5.7 mph WSW9.2 kmh WSW 13.6 mph21.9 kmh 30.13 in1020.3 mb 0.00 in0.0 mm 0.00 in0.0 mm 0.01 in0.3 mm
05:20 AM 49.1°F9.5°C 40.8°F4.9°C 73% 5.4 mph SW8.7 kmh SW 9.2 mph14.8 kmh 30.13 in1020.3 mb 0.00 in0.0 mm 0.00 in0.0 mm 0.01 in0.3 mm
05:15 AM 48.9°F9.4°C 40.7°F4.8°C 73% 5.5 mph SW8.9 kmh SW 9.2 mph14.8 kmh 30.13 in1020.3 mb 0.00 in0.0 mm 0.00 in0.0 mm 0.01 in0.3 mm
05:10 AM 48.9°F9.4°C 40.3°F4.6°C 72% 5.5 mph WSW8.9 kmh WSW 9.2 mph14.8 kmh 30.12 in1020.0 mb 0.00 in0.0 mm 0.00 in0.0 mm 0.01 in0.3 mm
05:05 AM 49.1°F9.5°C 40.5°F4.7°C 72% 6.2 mph WSW10.0 kmh WSW 9.8 mph15.8 kmh 30.13 in1020.3 mb 0.00 in0.0 mm 0.00 in0.0 mm 0.01 in0.3 mm
05:00 AM 49.3°F9.6°C 40.6°F4.8°C 72% 7.0 mph SW11.3 kmh SW 10.7 mph17.2 kmh 30.13 in1020.3 mb 0.00 in0.0 mm 0.00 in0.0 mm 0.01 in0.3 mm
04:55 AM 49.1°F9.5°C 40.8°F4.9°C 73% 6.9 mph SW11.1 kmh SW 10.7 mph17.2 kmh 30.13 in1020.3 mb 0.00 in0.0 mm 0.00 in0.0 mm 0.01 in0.3 mm
04:50 AM 49.1°F9.5°C 40.8°F4.9°C 73% 6.4 mph SW10.3 kmh SW 10.7 mph17.2 kmh 30.13 in1020.3 mb 0.00 in0.0 mm 0.00 in0.0 mm 0.01 in0.3 mm
04:45 AM 49.1°F9.5°C 40.8°F4.9°C 73% 6.3 mph SW10.1 kmh SW 10.7 mph17.2 kmh 30.13 in1020.3 mb 0.00 in0.0 mm 0.00 in0.0 mm 0.01 in0.3 mm
04:40 AM 49.1°F9.5°C 40.8°F4.9°C 73% 6.4 mph WSW10.3 kmh WSW 10.7 mph17.2 kmh 30.12 in1020.0 mb 0.00 in0.0 mm 0.00 in0.0 mm 0.01 in0.3 mm
04:35 AM 49.1°F9.5°C 40.8°F4.9°C 73% 6.0 mph SW9.7 kmh SW 9.8 mph15.8 kmh 30.13 in1020.3 mb 0.00 in0.0 mm 0.00 in0.0 mm 0.01 in0.3 mm
04:30 AM 49.1°F9.5°C 40.8°F4.9°C 73% 6.4 mph SW10.3 kmh SW 10.7 mph17.2 kmh 30.12 in1020.0 mb 0.00 in0.0 mm 0.00 in0.0 mm 0.01 in0.3 mm
04:25 AM 49.3°F9.6°C 41.0°F5.0°C 73% 6.7 mph SW10.8 kmh SW 10.7 mph17.2 kmh 30.13 in1020.3 mb 0.00 in0.0 mm 0.00 in0.0 mm 0.01 in0.3 mm
04:20 AM 49.1°F9.5°C 41.2°F5.1°C 74% 6.6 mph WSW10.6 kmh WSW 10.7 mph17.2 kmh 30.13 in1020.3 mb 0.00 in0.0 mm 0.00 in0.0 mm 0.01 in0.3 mm
04:15 AM 49.1°F9.5°C 41.2°F5.1°C 74% 7.3 mph WSW11.7 kmh WSW 12.1 mph19.5 kmh 30.13 in1020.3 mb 0.00 in0.0 mm 0.00 in0.0 mm 0.01 in0.3 mm
04:10 AM 49.3°F9.6°C 41.4°F5.2°C 74% 7.9 mph SW12.7 kmh SW 12.1 mph19.5 kmh 30.13 in1020.3 mb 0.00 in0.0 mm 0.00 in0.0 mm 0.01 in0.3 mm
04:05 AM 49.3°F9.6°C 41.4°F5.2°C 74% 8.1 mph WSW13.0 kmh WSW 13.6 mph21.9 kmh 30.13 in1020.3 mb 0.00 in0.0 mm 0.00 in0.0 mm 0.01 in0.3 mm
04:00 AM 49.3°F9.6°C 41.4°F5.2°C 74% 7.4 mph WSW11.9 kmh WSW 13.6 mph21.9 kmh 30.13 in1020.3 mb 0.00 in0.0 mm 0.00 in0.0 mm 0.01 in0.3 mm
03:55 AM 49.3°F9.6°C 41.7°F5.4°C 75% 6.8 mph WSW10.9 kmh WSW 10.7 mph17.2 kmh 30.13 in1020.3 mb 0.00 in0.0 mm 0.00 in0.0 mm 0.01 in0.3 mm
03:50 AM 49.3°F9.6°C 42.0°F5.6°C 76% 6.4 mph WSW10.3 kmh WSW 9.8 mph15.8 kmh 30.13 in1020.3 mb 0.00 in0.0 mm 0.00 in0.0 mm 0.01 in0.3 mm
03:45 AM 49.1°F9.5°C 41.9°F5.5°C 76% 6.0 mph SW9.7 kmh SW 9.8 mph15.8 kmh 30.13 in1020.3 mb 0.00 in0.0 mm 0.00 in0.0 mm 0.01 in0.3 mm
03:40 AM 49.1°F9.5°C 41.9°F5.5°C 76% 6.6 mph WSW10.6 kmh WSW 10.7 mph17.2 kmh 30.13 in1020.3 mb 0.00 in0.0 mm 0.00 in0.0 mm 0.01 in0.3 mm
03:35 AM 49.1°F9.5°C 41.9°F5.5°C 76% 7.0 mph SW11.3 kmh SW 11.4 mph18.3 kmh 30.13 in1020.3 mb 0.00 in0.0 mm 0.00 in0.0 mm 0.01 in0.3 mm
03:30 AM 49.1°F9.5°C 41.5°F5.3°C 75% 6.7 mph SW10.8 kmh SW 13.6 mph21.9 kmh 30.14 in1020.7 mb 0.00 in0.0 mm 0.00 in0.0 mm 0.01 in0.3 mm
03:25 AM 49.1°F9.5°C 41.5°F5.3°C 75% 6.6 mph WSW10.6 kmh WSW 13.6 mph21.9 kmh 30.14 in1020.7 mb 0.00 in0.0 mm 0.00 in0.0 mm 0.01 in0.3 mm
03:20 AM 49.1°F9.5°C 41.5°F5.3°C 75% 6.8 mph WSW10.9 kmh WSW 13.6 mph21.9 kmh 30.14 in1020.7 mb 0.00 in0.0 mm 0.00 in0.0 mm 0.01 in0.3 mm
03:15 AM 49.1°F9.5°C 41.5°F5.3°C 75% 7.3 mph SW11.7 kmh SW 12.1 mph19.5 kmh 30.14 in1020.7 mb 0.00 in0.0 mm 0.00 in0.0 mm 0.01 in0.3 mm
03:10 AM 49.1°F9.5°C 41.2°F5.1°C 74% 8.6 mph SW13.8 kmh SW 13.0 mph20.9 kmh 30.14 in1020.7 mb 0.00 in0.0 mm 0.00 in0.0 mm 0.01 in0.3 mm
03:05 AM 49.1°F9.5°C 41.2°F5.1°C 74% 8.5 mph WSW13.7 kmh WSW 13.0 mph20.9 kmh 30.14 in1020.7 mb 0.00 in0.0 mm 0.00 in0.0 mm 0.01 in0.3 mm
03:00 AM 48.7°F9.3°C 41.2°F5.1°C 75% 7.2 mph WSW11.6 kmh WSW 12.1 mph19.5 kmh 30.14 in1020.7 mb 0.00 in0.0 mm 0.00 in0.0 mm 0.01 in0.3 mm
02:55 AM 48.4°F9.1°C 40.8°F4.9°C 75% 6.3 mph WSW10.1 kmh WSW 9.8 mph15.8 kmh 30.14 in1020.7 mb 0.00 in0.0 mm 0.00 in0.0 mm 0.01 in0.3 mm
02:50 AM 48.4°F9.1°C 40.8°F4.9°C 75% 5.4 mph SW8.7 kmh SW 9.8 mph15.8 kmh 30.14 in1020.7 mb 0.00 in0.0 mm 0.00 in0.0 mm 0.01 in0.3 mm
02:45 AM 48.4°F9.1°C 40.8°F4.9°C 75% 5.8 mph SW9.3 kmh SW 9.2 mph14.8 kmh 30.14 in1020.7 mb 0.00 in0.0 mm 0.00 in0.0 mm 0.01 in0.3 mm
02:40 AM 48.4°F9.1°C 40.8°F4.9°C 75% 6.7 mph SW10.8 kmh SW 9.8 mph15.8 kmh 30.14 in1020.7 mb 0.00 in0.0 mm 0.00 in0.0 mm 0.01 in0.3 mm
02:35 AM 48.2°F9.0°C 40.7°F4.8°C 75% 6.7 mph SW10.8 kmh SW 9.8 mph15.8 kmh 30.14 in1020.7 mb 0.00 in0.0 mm 0.00 in0.0 mm 0.01 in0.3 mm
02:30 AM 48.4°F9.1°C 40.8°F4.9°C 75% 6.9 mph SW11.1 kmh SW 10.7 mph17.2 kmh 30.14 in1020.7 mb 0.00 in0.0 mm 0.00 in0.0 mm 0.01 in0.3 mm
02:25 AM 48.6°F9.2°C 41.0°F5.0°C 75% 7.7 mph SW12.4 kmh SW 11.4 mph18.3 kmh 30.14 in1020.7 mb 0.00 in0.0 mm 0.00 in0.0 mm 0.01 in0.3 mm
02:20 AM 48.6°F9.2°C 41.0°F5.0°C 75% 8.1 mph SW13.0 kmh SW 11.4 mph18.3 kmh 30.14 in1020.7 mb 0.00 in0.0 mm 0.00 in0.0 mm 0.01 in0.3 mm
02:15 AM 48.6°F9.2°C 41.3°F5.2°C 76% 8.1 mph WSW13.0 kmh WSW 12.1 mph19.5 kmh 30.14 in1020.7 mb 0.00 in0.0 mm 0.00 in0.0 mm 0.01 in0.3 mm
02:10 AM 48.4°F9.1°C 41.2°F5.1°C 76% 9.0 mph SW14.5 kmh SW 13.0 mph20.9 kmh 30.13 in1020.3 mb 0.00 in0.0 mm 0.00 in0.0 mm 0.01 in0.3 mm
02:05 AM 48.2°F9.0°C 41.3°F5.2°C 77% 8.0 mph SW12.9 kmh SW 13.0 mph20.9 kmh 30.13 in1020.3 mb 0.00 in0.0 mm 0.00 in0.0 mm 0.01 in0.3 mm
02:00 AM 47.5°F8.6°C 40.6°F4.8°C 77% 5.4 mph SW8.7 kmh SW 13.0 mph20.9 kmh 30.14 in1020.7 mb 0.00 in0.0 mm 0.00 in0.0 mm 0.01 in0.3 mm
01:55 AM 47.5°F8.6°C 40.6°F4.8°C 77% 4.9 mph SW7.9 kmh SW 7.6 mph12.2 kmh 30.14 in1020.7 mb 0.00 in0.0 mm 0.00 in0.0 mm 0.01 in0.3 mm
01:50 AM 47.5°F8.6°C 40.3°F4.6°C 76% 5.0 mph WSW8.0 kmh WSW 8.3 mph13.4 kmh 30.14 in1020.7 mb 0.00 in0.0 mm 0.00 in0.0 mm 0.01 in0.3 mm
01:45 AM 47.5°F8.6°C 40.3°F4.6°C 76% 5.0 mph SW8.0 kmh SW 8.3 mph13.4 kmh 30.14 in1020.7 mb 0.00 in0.0 mm 0.00 in0.0 mm 0.01 in0.3 mm
01:40 AM 47.5°F8.6°C 40.6°F4.8°C 77% 4.7 mph SW7.6 kmh SW 8.3 mph13.4 kmh 30.14 in1020.7 mb 0.00 in0.0 mm 0.00 in0.0 mm 0.01 in0.3 mm
01:35 AM 47.3°F8.5°C 40.5°F4.7°C 77% 4.4 mph SW7.1 kmh SW 7.6 mph12.2 kmh 30.14 in1020.7 mb 0.00 in0.0 mm 0.00 in0.0 mm 0.01 in0.3 mm
01:30 AM 47.3°F8.5°C 40.5°F4.7°C 77% 4.4 mph SW7.1 kmh SW 7.6 mph12.2 kmh 30.13 in1020.3 mb 0.00 in0.0 mm 0.00 in0.0 mm 0.01 in0.3 mm
01:25 AM 47.5°F8.6°C 40.6°F4.8°C 77% 4.6 mph SW7.4 kmh SW 7.6 mph12.2 kmh 30.13 in1020.3 mb 0.00 in0.0 mm 0.00 in0.0 mm 0.01 in0.3 mm
01:20 AM 47.5°F8.6°C 40.6°F4.8°C 77% 4.6 mph SW7.4 kmh SW 7.6 mph12.2 kmh 30.14 in1020.7 mb 0.00 in0.0 mm 0.00 in0.0 mm 0.01 in0.3 mm
01:15 AM 47.1°F8.4°C 40.3°F4.6°C 77% 4.5 mph SW7.2 kmh SW 7.6 mph12.2 kmh 30.14 in1020.7 mb 0.00 in0.0 mm 0.00 in0.0 mm 0.01 in0.3 mm
01:10 AM 47.1°F8.4°C 40.3°F4.6°C 77% 4.1 mph SW6.6 kmh SW 6.9 mph11.1 kmh 30.14 in1020.7 mb 0.01 in0.3 mm 0.00 in0.0 mm 0.01 in0.3 mm
01:05 AM 47.5°F8.6°C 40.6°F4.8°C 77% 3.7 mph SW6.0 kmh SW 6.9 mph11.1 kmh 30.14 in1020.7 mb 0.01 in0.3 mm 0.00 in0.0 mm 0.01 in0.3 mm
01:00 AM 47.7°F8.7°C 40.8°F4.9°C 77% 4.4 mph SW7.1 kmh SW 8.3 mph13.4 kmh 30.13 in1020.3 mb 0.01 in0.3 mm 0.00 in0.0 mm 0.01 in0.3 mm
12:55 AM 47.7°F8.7°C 41.1°F5.1°C 78% 5.1 mph SW8.2 kmh SW 9.2 mph14.8 kmh 30.14 in1020.7 mb 0.01 in0.3 mm 0.00 in0.0 mm 0.01 in0.3 mm
12:50 AM 47.5°F8.6°C 41.3°F5.2°C 79% 4.3 mph SW6.9 kmh SW 9.2 mph14.8 kmh 30.14 in1020.7 mb 0.01 in0.3 mm 0.00 in0.0 mm 0.01 in0.3 mm
12:45 AM 47.3°F8.5°C 41.1°F5.1°C 79% 3.6 mph SW5.8 kmh SW 6.0 mph9.7 kmh 30.14 in1020.7 mb 0.01 in0.3 mm 0.00 in0.0 mm 0.01 in0.3 mm
12:40 AM 47.3°F8.5°C 41.4°F5.2°C 80% 4.3 mph SSW6.9 kmh SSW 6.0 mph9.7 kmh 30.14 in1020.7 mb 0.01 in0.3 mm 0.00 in0.0 mm 0.01 in0.3 mm
12:35 AM 47.1°F8.4°C 40.9°F4.9°C 79% 4.4 mph SW7.1 kmh SW 6.9 mph11.1 kmh 30.14 in1020.7 mb 0.01 in0.3 mm 0.00 in0.0 mm 0.01 in0.3 mm
12:30 AM 47.3°F8.5°C 40.8°F4.9°C 78% 4.9 mph SW7.9 kmh SW 9.8 mph15.8 kmh 30.14 in1020.7 mb 0.01 in0.3 mm 0.00 in0.0 mm 0.01 in0.3 mm
12:25 AM 47.5°F8.6°C 40.6°F4.8°C 77% 6.1 mph SW9.8 kmh SW 9.8 mph15.8 kmh 30.14 in1020.7 mb 0.01 in0.3 mm 0.00 in0.0 mm 0.01 in0.3 mm
12:20 AM 47.7°F8.7°C 40.8°F4.9°C 77% 7.2 mph SW11.6 kmh SW 10.7 mph17.2 kmh 30.14 in1020.7 mb 0.01 in0.3 mm 0.00 in0.0 mm 0.01 in0.3 mm
12:15 AM 48.0°F8.9°C 40.8°F4.9°C 76% 6.6 mph WSW10.6 kmh WSW 10.7 mph17.2 kmh 30.14 in1020.7 mb 0.01 in0.3 mm 0.12 in3.0 mm 0.01 in0.3 mm
12:10 AM 48.0°F8.9°C 40.5°F4.7°C 75% 6.3 mph SW10.1 kmh SW 11.4 mph18.3 kmh 30.14 in1020.7 mb 0.00 in0.0 mm 0.00 in0.0 mm 0.00 in0.0 mm
12:05 AM 48.0°F8.9°C 40.1°F4.5°C 74% 6.5 mph SW10.5 kmh SW 11.4 mph18.3 kmh 30.14 in1020.7 mb 0.00 in0.0 mm 0.00 in0.0 mm 0.00 in0.0 mm
12:00 AM 47.7°F8.7°C 39.8°F4.3°C 74% 6.4 mph SW10.3 kmh SW 11.4 mph18.3 kmh 30.14 in1020.7 mb 0.00 in0.0 mm 0.00 in0.0 mm 0.00 in0.0 mm